Time;durP1;ratioP1;P1;durP2;ratioP2;P2;SDS_P1;SDS_P2;PMS_P1;PMS_P2;Temp;Humidity;BMP_temperature;BMP_pressure;BME280_temperature;BME280_humidity;BME280_pressure;Samples;Min_cycle;Max_cycle;Signal;HPM_P1;HPM_P2
2021/10/05 00:01:31;;;;;;;2.03;0.30;;;10.60;99.90;;;;;;5065920;28;20070;-74
2021/10/05 00:03:57;;;;;;;1.95;0.30;;;10.60;99.90;;;;;;5083914;28;20039;-74
2021/10/05 00:06:24;;;;;;;2.33;0.30;;;10.50;99.90;;;;;;5110781;27;20392;-74
2021/10/05 00:08:51;;;;;;;2.08;0.30;;;10.60;99.90;;;;;;5082590;28;20047;-74
2021/10/05 00:11:17;;;;;;;2.42;0.73;;;10.60;99.90;;;;;;5085398;27;20384;-73
2021/10/05 00:13:44;;;;;;;2.10;0.28;;;10.60;99.90;;;;;;5102200;28;20035;-74
2021/10/05 00:16:11;;;;;;;1.65;0.40;;;10.60;99.90;;;;;;5068859;28;20058;-74
2021/10/05 00:18:37;;;;;;;1.77;0.40;;;10.50;99.90;;;;;;5084470;28;20395;-74
2021/10/05 00:21:04;;;;;;;1.80;0.40;;;10.50;99.90;;;;;;5085038;28;20521;-74
2021/10/05 00:23:31;;;;;;;2.15;0.38;;;10.50;99.90;;;;;;5083642;27;20044;-73
2021/10/05 00:25:57;;;;;;;1.85;0.20;;;10.50;99.90;;;;;;5114537;27;20395;-74
2021/10/05 00:28:24;;;;;;;1.08;0.40;;;10.50;99.90;;;;;;5072172;27;20495;-73
2021/10/05 00:30:50;;;;;;;1.33;0.30;;;10.50;99.90;;;;;;5113564;27;20032;-74
2021/10/05 00:33:16;;;;;;;5.65;2.55;;;10.50;99.90;;;;;;5087241;27;20043;-73
2021/10/05 00:35:43;;;;;;;2.67;0.70;;;10.40;99.90;;;;;;5068042;27;20036;-74
2021/10/05 00:38:09;;;;;;;2.33;0.60;;;10.50;99.90;;;;;;5053031;27;20399;-74
2021/10/05 00:40:36;;;;;;;1.90;0.70;;;10.50;99.90;;;;;;5072465;27;20046;-74
2021/10/05 00:43:02;;;;;;;1.05;0.47;;;10.50;99.90;;;;;;5114988;27;20961;-74
2021/10/05 00:45:28;;;;;;;2.45;0.77;;;10.40;99.90;;;;;;5088546;27;20031;-74
2021/10/05 00:47:55;;;;;;;3.67;0.40;;;10.40;99.90;;;;;;5086984;27;20047;-74
2021/10/05 00:50:21;;;;;;;2.45;0.40;;;10.40;99.90;;;;;;5089122;27;20857;-74
2021/10/05 00:52:49;;;;;;;4.28;0.50;;;10.40;99.90;;;;;;5063971;27;20047;-74
2021/10/05 00:55:15;;;;;;;1.17;0.30;;;10.30;99.90;;;;;;5071847;27;20700;-74
2021/10/05 00:57:42;;;;;;;2.20;0.50;;;10.30;99.90;;;;;;5086571;27;20055;-74
2021/10/05 01:00:09;;;;;;;5.05;0.60;;;10.30;99.90;;;;;;5087507;27;20039;-74
2021/10/05 01:02:38;;;;;;;4.63;0.73;;;10.30;99.90;;;;;;5085453;28;20044;-74
2021/10/05 01:05:06;;;;;;;2.50;0.40;;;10.30;99.90;;;;;;5112770;27;20051;-73
2021/10/05 01:07:33;;;;;;;2.03;0.50;;;10.30;99.90;;;;;;5086159;27;20046;-74
2021/10/05 01:10:00;;;;;;;2.00;0.40;;;10.20;99.90;;;;;;5074409;28;20032;-74
2021/10/05 01:12:26;;;;;;;3.38;0.65;;;10.20;99.90;;;;;;5108797;27;20051;-74
2021/10/05 01:14:53;;;;;;;1.58;0.40;;;10.20;99.90;;;;;;5087346;27;20035;-73
2021/10/05 01:17:20;;;;;;;2.78;0.43;;;10.20;99.90;;;;;;5088269;27;20062;-74
2021/10/05 01:19:46;;;;;;;1.38;0.40;;;10.20;99.90;;;;;;5069952;27;20035;-74
2021/10/05 01:22:13;;;;;;;2.38;0.40;;;10.20;99.90;;;;;;5088196;27;20039;-74
2021/10/05 01:24:40;;;;;;;2.97;0.32;;;10.20;99.90;;;;;;5077163;27;20035;-73
2021/10/05 01:27:06;;;;;;;2.17;0.40;;;10.10;99.90;;;;;;5117082;27;20677;-73
2021/10/05 01:29:33;;;;;;;2.95;0.47;;;10.10;99.90;;;;;;5071521;27;20063;-74
2021/10/05 01:32:02;;;;;;;5.75;0.75;;;10.10;99.90;;;;;;5071423;27;20525;-74
2021/10/05 01:34:29;;;;;;;1.08;0.50;;;10.10;99.90;;;;;;5087688;27;20507;-74
2021/10/05 01:37:00;;;;;;;1.02;0.40;;;10.10;99.90;;;;;;5114761;27;20344;-74
2021/10/05 01:39:27;;;;;;;1.17;0.30;;;10.10;99.90;;;;;;5085564;27;20027;-74
2021/10/05 01:42:08;;;;;;;1.25;0.38;;;10.10;99.90;;;;;;5088710;27;20411;-74
2021/10/05 01:44:35;;;;;;;1.20;0.40;;;10.00;99.90;;;;;;5085230;27;20373;-74
2021/10/05 01:47:06;;;;;;;1.23;0.30;;;10.00;99.90;;;;;;5086194;27;20044;-74
2021/10/05 01:49:33;;;;;;;2.38;0.43;;;10.00;99.90;;;;;;5086552;27;20046;-73
2021/10/05 01:52:00;;;;;;;4.97;0.70;;;10.00;99.90;;;;;;5085821;27;20054;-74
2021/10/05 01:54:26;;;;;;;1.50;0.40;;;10.00;99.90;;;;;;5104054;27;20038;-74
2021/10/05 01:56:52;;;;;;;2.20;0.85;;;10.00;99.90;;;;;;5109692;27;20494;-73
2021/10/05 01:59:19;;;;;;;1.10;0.30;;;10.00;99.90;;;;;;5101407;28;20391;-74
2021/10/05 02:01:45;;;;;;;2.83;0.40;;;9.90;99.90;;;;;;5086526;27;20044;-74
2021/10/05 02:04:12;;;;;;;1.83;0.47;;;9.90;99.90;;;;;;5086673;27;20055;-74
2021/10/05 02:06:41;;;;;;;2.75;0.35;;;9.90;99.90;;;;;;5111568;27;20039;-74
2021/10/05 02:09:09;;;;;;;2.78;0.32;;;9.90;99.90;;;;;;5111153;27;20936;-74
2021/10/05 02:11:36;;;;;;;2.25;0.40;;;9.90;99.90;;;;;;5079375;27;20042;-74
2021/10/05 02:14:03;;;;;;;1.60;0.50;;;9.90;99.90;;;;;;5068871;27;20036;-74
2021/10/05 02:16:31;;;;;;;1.73;0.50;;;9.90;99.90;;;;;;5062744;27;20533;-74
2021/10/05 02:18:57;;;;;;;2.95;0.47;;;9.90;99.90;;;;;;5111057;27;20387;-74
2021/10/05 02:21:23;;;;;;;1.30;0.32;;;9.90;99.90;;;;;;5069829;27;20055;-74
2021/10/05 02:26:36;;;;;;;2.00;0.50;;;9.90;99.90;;;;;;5089856;27;20275;-74
2021/10/05 02:29:03;;;;;;;3.75;0.45;;;9.90;99.90;;;;;;5112461;27;20050;-74
2021/10/05 02:31:30;;;;;;;3.67;0.50;;;9.90;99.90;;;;;;5087118;27;20039;-74
2021/10/05 02:33:57;;;;;;;1.92;0.30;;;9.90;99.90;;;;;;5068419;27;20062;-74
2021/10/05 02:36:23;;;;;;;1.25;0.30;;;9.90;99.90;;;;;;5067487;27;20536;-74
2021/10/05 02:38:50;;;;;;;2.03;0.40;;;9.80;99.90;;;;;;5110285;27;20035;-74
2021/10/05 02:41:17;;;;;;;1.40;0.40;;;9.80;99.90;;;;;;5087097;28;20043;-74
2021/10/05 02:43:43;;;;;;;4.32;0.43;;;9.90;99.90;;;;;;5086603;27;20496;-74
2021/10/05 02:46:10;;;;;;;1.88;0.45;;;9.90;99.90;;;;;;5084613;28;20053;-74
2021/10/05 02:48:37;;;;;;;2.65;0.40;;;9.90;99.90;;;;;;5085303;27;20040;-74
2021/10/05 02:51:03;;;;;;;1.30;0.30;;;9.90;99.90;;;;;;5084584;27;20047;-74
2021/10/05 02:53:29;;;;;;;2.30;0.40;;;9.90;99.90;;;;;;5076221;27;20043;-74
2021/10/05 02:55:56;;;;;;;2.75;0.40;;;9.90;99.90;;;;;;5071343;27;20050;-73
2021/10/05 02:58:22;;;;;;;1.13;0.40;;;9.80;99.90;;;;;;5076591;27;20040;-74
2021/10/05 03:00:49;;;;;;;2.22;0.50;;;9.90;99.90;;;;;;5112611;27;20031;-74
2021/10/05 03:03:15;;;;;;;2.05;0.50;;;9.90;99.90;;;;;;5107845;27;20028;-74
2021/10/05 03:05:41;;;;;;;1.48;0.40;;;9.90;99.90;;;;;;5083727;27;20039;-74
2021/10/05 03:08:08;;;;;;;3.28;0.70;;;9.90;99.90;;;;;;5082100;28;20479;-75
2021/10/05 03:10:36;;;;;;;2.50;0.60;;;9.90;99.90;;;;;;5111116;27;20036;-74
2021/10/05 03:13:04;;;;;;;2.05;0.50;;;9.90;99.90;;;;;;5068819;27;20035;-74
2021/10/05 03:15:30;;;;;;;2.13;0.50;;;9.90;99.90;;;;;;5083942;27;20043;-74
2021/10/05 03:17:57;;;;;;;2.85;0.80;;;9.90;99.90;;;;;;5111674;27;20027;-73
2021/10/05 03:20:23;;;;;;;1.55;0.50;;;9.90;99.90;;;;;;5113523;27;20043;-73
2021/10/05 03:22:50;;;;;;;2.67;0.65;;;9.80;99.90;;;;;;5110502;27;20058;-74
2021/10/05 03:25:16;;;;;;;2.35;0.63;;;9.90;99.90;;;;;;5110497;27;20043;-73
2021/10/05 03:27:42;;;;;;;3.05;0.70;;;9.90;99.90;;;;;;5112215;27;20039;-73
2021/10/05 03:30:10;;;;;;;4.22;0.80;;;9.90;99.90;;;;;;5084428;28;20058;-73
2021/10/05 03:32:36;;;;;;;2.30;0.73;;;9.90;99.90;;;;;;5115719;27;20067;-73
2021/10/05 03:35:04;;;;;;;3.60;0.85;;;9.90;99.90;;;;;;5071670;28;20488;-73
2021/10/05 03:37:30;;;;;;;2.95;0.90;;;9.90;99.90;;;;;;5103668;27;20042;-73
2021/10/05 03:39:57;;;;;;;2.70;0.82;;;9.90;99.90;;;;;;5107354;28;20600;-73
2021/10/05 03:42:23;;;;;;;2.10;0.80;;;10.00;99.90;;;;;;5087638;28;20036;-73
2021/10/05 03:44:50;;;;;;;1.27;0.65;;;10.00;99.90;;;;;;5101326;28;20036;-73
2021/10/05 03:47:16;;;;;;;2.72;0.73;;;10.00;99.90;;;;;;5083918;28;20047;-73
2021/10/05 03:49:42;;;;;;;3.05;0.90;;;9.90;99.90;;;;;;5085325;28;20038;-76
2021/10/05 03:52:09;;;;;;;2.83;0.95;;;10.00;99.90;;;;;;5068072;28;21336;-73
2021/10/05 03:54:35;;;;;;;3.10;0.73;;;9.90;99.90;;;;;;5108684;27;20036;-73
2021/10/05 03:57:02;;;;;;;2.50;0.95;;;9.90;99.90;;;;;;5079068;27;20410;-74
2021/10/05 03:59:29;;;;;;;1.70;0.75;;;10.00;99.90;;;;;;5088463;27;20047;-73
2021/10/05 04:01:55;;;;;;;3.83;0.77;;;9.90;99.90;;;;;;5089470;27;20387;-74
2021/10/05 04:04:21;;;;;;;1.85;0.60;;;9.90;99.90;;;;;;5087254;27;20039;-73
2021/10/05 04:06:48;;;;;;;3.30;1.17;;;9.90;99.90;;;;;;5072723;27;20038;-73
2021/10/05 04:09:14;;;;;;;3.35;1.05;;;9.90;99.90;;;;;;5069979;27;20043;-73
2021/10/05 04:11:41;;;;;;;2.42;1.00;;;9.90;99.90;;;;;;5087819;27;20054;-74
2021/10/05 04:14:07;;;;;;;1.95;0.70;;;9.90;99.90;;;;;;5072843;27;20054;-73
2021/10/05 04:16:34;;;;;;;4.85;1.02;;;9.90;99.90;;;;;;5090597;27;20411;-73
2021/10/05 04:19:00;;;;;;;2.88;1.30;;;9.90;99.90;;;;;;5111916;27;20035;-73
2021/10/05 04:21:26;;;;;;;3.30;1.02;;;9.90;99.90;;;;;;5078708;27;20036;-73
2021/10/05 04:23:53;;;;;;;4.90;1.23;;;9.90;99.90;;;;;;5112294;27;20042;-73
2021/10/05 04:26:19;;;;;;;1.67;0.90;;;9.90;99.90;;;;;;5114988;27;20047;-73
2021/10/05 04:28:45;;;;;;;2.00;1.08;;;9.90;99.90;;;;;;5088817;27;20046;-74
2021/10/05 04:31:24;;;;;;;1.83;0.82;;;9.90;99.90;;;;;;5114873;27;20051;-74
2021/10/05 04:33:50;;;;;;;3.70;0.88;;;9.90;99.90;;;;;;5088712;27;20046;-74
2021/10/05 04:36:17;;;;;;;2.83;1.10;;;9.90;99.90;;;;;;5072816;27;20039;-73
2021/10/05 04:38:43;;;;;;;3.35;1.38;;;9.90;99.90;;;;;;5069098;27;20036;-74
2021/10/05 04:41:10;;;;;;;4.78;1.70;;;9.90;99.90;;;;;;5088803;27;20035;-73
2021/10/05 04:43:36;;;;;;;2.80;1.33;;;9.90;99.90;;;;;;5087057;27;20051;-73
2021/10/05 04:46:03;;;;;;;2.30;1.20;;;9.90;99.90;;;;;;5112148;27;20035;-74
2021/10/05 04:48:29;;;;;;;6.10;1.27;;;9.90;99.90;;;;;;5112048;27;20511;-73
2021/10/05 04:50:55;;;;;;;3.60;1.45;;;9.90;99.90;;;;;;5072949;27;20047;-74
2021/10/05 04:53:22;;;;;;;2.20;1.20;;;9.90;99.90;;;;;;5086905;27;20054;-73
2021/10/05 04:55:48;;;;;;;2.17;1.00;;;9.90;99.90;;;;;;5087658;27;20071;-74
2021/10/05 04:58:15;;;;;;;3.58;1.40;;;9.90;99.90;;;;;;5109988;27;20971;-73
2021/10/05 05:00:41;;;;;;;3.88;1.40;;;9.90;99.90;;;;;;5055233;27;20043;-73
2021/10/05 05:03:08;;;;;;;2.85;0.95;;;9.90;99.90;;;;;;5115142;27;20035;-75
2021/10/05 05:05:34;;;;;;;3.42;1.13;;;9.90;99.90;;;;;;5066233;27;20790;-76
2021/10/05 05:08:01;;;;;;;2.88;1.40;;;9.90;99.90;;;;;;5112546;27;20032;-77
2021/10/05 05:10:28;;;;;;;4.80;1.52;;;9.90;99.90;;;;;;5087459;27;20051;-76
2021/10/05 05:12:55;;;;;;;4.35;1.52;;;9.90;99.90;;;;;;5088488;27;20042;-76
2021/10/05 05:15:21;;;;;;;7.60;1.50;;;9.90;99.90;;;;;;5086348;27;20039;-76
2021/10/05 05:17:48;;;;;;;2.95;1.45;;;9.90;99.90;;;;;;5084180;27;20052;-74
2021/10/05 05:20:14;;;;;;;3.88;1.90;;;9.90;99.90;;;;;;5088160;28;20058;-75
2021/10/05 05:22:42;;;;;;;3.85;1.98;;;9.90;99.90;;;;;;5118121;27;20027;-76
2021/10/05 05:25:08;;;;;;;3.92;1.90;;;9.90;99.90;;;;;;5102583;27;20028;-76
2021/10/05 05:27:35;;;;;;;3.13;2.10;;;9.90;99.90;;;;;;5103678;27;20042;-74
2021/10/05 05:30:01;;;;;;;3.22;2.25;;;9.90;99.90;;;;;;5082838;28;20023;-74
2021/10/05 05:32:28;;;;;;;4.65;2.50;;;9.90;99.90;;;;;;5083759;27;20039;-74
2021/10/05 05:34:54;;;;;;;3.92;1.90;;;9.90;99.90;;;;;;5107247;27;20031;-74
2021/10/05 05:37:21;;;;;;;3.97;2.10;;;9.90;99.90;;;;;;5060057;27;20055;-74
2021/10/05 05:39:47;;;;;;;4.63;2.35;;;9.90;99.90;;;;;;5065047;28;20028;-74
2021/10/05 05:42:14;;;;;;;5.68;3.55;;;9.80;99.90;;;;;;5113621;27;20039;-73
2021/10/05 05:44:40;;;;;;;6.43;3.33;;;9.90;99.90;;;;;;5085832;27;20412;-73
2021/10/05 05:47:08;;;;;;;4.18;3.75;;;9.90;99.90;;;;;;5084881;27;20035;-74
2021/10/05 05:49:34;;;;;;;6.30;4.72;;;9.90;99.90;;;;;;5076061;27;20054;-74
2021/10/05 05:52:00;;;;;;;13.88;5.50;;;9.80;99.90;;;;;;5067362;27;20136;-73
2021/10/05 05:54:27;;;;;;;7.20;4.10;;;9.90;99.90;;;;;;5085710;27;20023;-73
2021/10/05 05:56:53;;;;;;;7.88;4.88;;;9.90;99.90;;;;;;5086858;28;20050;-73
2021/10/05 05:59:19;;;;;;;6.50;4.47;;;9.90;99.90;;;;;;5084501;27;20047;-73
2021/10/05 06:01:46;;;;;;;7.60;4.20;;;9.90;99.90;;;;;;5087035;27;20050;-73
2021/10/05 06:04:12;;;;;;;8.35;4.95;;;9.90;99.90;;;;;;5104471;27;20028;-73
2021/10/05 06:06:38;;;;;;;8.40;4.85;;;9.90;99.90;;;;;;5104885;27;20388;-74
2021/10/05 06:09:05;;;;;;;6.90;4.35;;;9.90;99.90;;;;;;5070219;27;20039;-73
2021/10/05 06:11:38;;;;;;;6.82;4.78;;;9.90;99.90;;;;;;5069249;27;20702;-73
2021/10/05 06:14:04;;;;;;;;;;;10.00;99.90;;;;;;5067503;27;20051;-73
2021/10/05 06:16:31;;;;;;;9.90;5.53;;;10.00;99.90;;;;;;5086076;28;19950;-73
2021/10/05 06:18:57;;;;;;;8.43;5.38;;;10.00;99.90;;;;;;5085348;28;20040;-73
2021/10/05 06:21:24;;;;;;;5.70;4.78;;;10.00;99.90;;;;;;5110406;27;20039;-75
2021/10/05 06:23:51;;;;;;;9.05;6.60;;;10.00;99.90;;;;;;5068889;28;20407;-75
2021/10/05 06:26:18;;;;;;;7.53;5.53;;;10.00;99.90;;;;;;5067636;28;20051;-73
2021/10/05 06:28:44;;;;;;;6.72;5.63;;;10.00;99.90;;;;;;5108180;27;20031;-75
2021/10/05 06:31:11;;;;;;;5.85;4.28;;;10.10;99.90;;;;;;5086294;28;20046;-75
2021/10/05 06:33:37;;;;;;;5.15;4.55;;;10.10;99.90;;;;;;5069287;28;20044;-73
2021/10/05 06:36:04;;;;;;;7.63;4.47;;;10.10;99.90;;;;;;5104306;27;20043;-73
2021/10/05 06:38:30;;;;;;;8.60;4.32;;;10.10;99.90;;;;;;5073798;28;20048;-73
2021/10/05 06:40:58;;;;;;;5.28;4.72;;;10.20;99.90;;;;;;5069686;27;20044;-73
2021/10/05 06:43:24;;;;;;;6.15;4.43;;;10.20;99.90;;;;;;5051620;27;20035;-75
2021/10/05 06:45:51;;;;;;;6.50;4.50;;;10.30;99.90;;;;;;5052014;28;20055;-75
2021/10/05 06:48:17;;;;;;;9.48;5.35;;;10.30;99.90;;;;;;5066461;27;20047;-75
2021/10/05 06:50:44;;;;;;;6.15;4.30;;;10.30;99.90;;;;;;5084089;28;20043;-73
2021/10/05 06:53:16;;;;;;;8.10;4.75;;;10.40;99.90;;;;;;5108720;27;20035;-73
2021/10/05 06:55:44;;;;;;;5.13;4.40;;;10.40;99.90;;;;;;5107705;27;20506;-73
2021/10/05 06:58:11;;;;;;;12.10;5.63;;;10.50;99.90;;;;;;5104338;27;20043;-73
2021/10/05 07:00:37;;;;;;;4.82;4.28;;;10.50;99.90;;;;;;5068712;28;20035;-74
2021/10/05 07:03:04;;;;;;;5.45;4.50;;;10.50;99.90;;;;;;5101703;27;20034;-74
2021/10/05 07:05:30;;;;;;;10.15;4.72;;;10.60;99.90;;;;;;5102274;27;20866;-74
2021/10/05 07:07:56;;;;;;;4.85;3.83;;;10.80;99.90;;;;;;5069061;27;20476;-74
2021/10/05 07:10:23;;;;;;;5.57;4.10;;;10.90;99.90;;;;;;5067669;28;20067;-73
2021/10/05 07:12:51;;;;;;;6.25;3.88;;;11.00;99.90;;;;;;5107978;27;21108;-73
2021/10/05 07:15:17;;;;;;;5.72;3.97;;;11.10;99.90;;;;;;5115291;27;20028;-74
2021/10/05 07:17:44;;;;;;;5.20;3.97;;;11.20;99.90;;;;;;5083347;28;20031;-73
2021/10/05 07:20:11;;;;;;;5.47;3.78;;;11.40;99.90;;;;;;5105065;27;20352;-74
2021/10/05 07:22:38;;;;;;;5.28;3.97;;;11.50;99.90;;;;;;5104884;27;20043;-74
2021/10/05 07:25:05;;;;;;;6.68;3.63;;;11.60;99.90;;;;;;5081835;28;20047;-74
2021/10/05 07:27:31;;;;;;;5.65;4.53;;;11.70;99.90;;;;;;5068452;28;20052;-75
2021/10/05 07:29:58;;;;;;;5.10;3.78;;;11.80;99.90;;;;;;5110025;28;20510;-75
2021/10/05 07:32:24;;;;;;;5.15;3.40;;;12.00;99.90;;;;;;5107951;27;20036;-75
2021/10/05 07:34:50;;;;;;;5.00;3.08;;;12.20;99.90;;;;;;5053338;28;20771;-75
2021/10/05 07:37:17;;;;;;;4.65;3.70;;;12.30;99.90;;;;;;5109936;27;20372;-75
2021/10/05 07:39:43;;;;;;;4.43;3.00;;;12.40;99.90;;;;;;5051347;28;20036;-75
2021/10/05 07:42:10;;;;;;;6.88;2.63;;;12.50;99.90;;;;;;5106927;28;20514;-75
2021/10/05 07:44:36;;;;;;;4.35;2.92;;;12.60;99.90;;;;;;5104894;28;20055;-75
2021/10/05 07:47:03;;;;;;;4.95;2.40;;;12.70;99.90;;;;;;5107411;28;20039;-75
2021/10/05 07:49:29;;;;;;;3.75;2.25;;;12.80;99.90;;;;;;5085260;28;20039;-75
2021/10/05 07:51:56;;;;;;;3.35;1.90;;;12.80;99.90;;;;;;5068470;28;20055;-75
2021/10/05 07:54:22;;;;;;;3.88;2.95;;;12.80;99.90;;;;;;5084108;28;20047;-75
2021/10/05 07:56:49;;;;;;;5.60;2.83;;;12.90;99.90;;;;;;5068099;28;20389;-75
2021/10/05 07:59:15;;;;;;;5.85;2.40;;;12.80;99.90;;;;;;5084326;28;20495;-75
2021/10/05 08:01:48;;;;;;;6.20;2.63;;;12.80;99.90;;;;;;5108517;28;20039;-75
2021/10/05 08:04:14;;;;;;;5.03;2.65;;;12.80;99.90;;;;;;5064253;28;20048;-75
2021/10/05 08:06:41;;;;;;;4.93;2.83;;;12.70;99.90;;;;;;5085549;28;20043;-75
2021/10/05 08:09:08;;;;;;;3.95;2.63;;;12.70;99.90;;;;;;5082003;28;20066;-75
2021/10/05 08:11:34;;;;;;;4.63;3.25;;;12.60;99.90;;;;;;5085788;28;20031;-75
2021/10/05 08:14:01;;;;;;;4.55;2.75;;;12.60;99.90;;;;;;5085230;28;20506;-75
2021/10/05 08:16:30;;;;;;;4.30;2.45;;;12.70;99.90;;;;;;5087065;28;20035;-75
2021/10/05 08:19:00;;;;;;;3.22;2.20;;;12.70;99.90;;;;;;5083848;28;20385;-75
2021/10/05 08:21:28;;;;;;;5.72;3.22;;;12.80;99.90;;;;;;5086788;28;20538;-75
2021/10/05 08:23:54;;;;;;;4.78;2.10;;;13.00;99.90;;;;;;5083884;28;20058;-75
2021/10/05 08:26:22;;;;;;;5.07;3.17;;;13.10;99.90;;;;;;5068441;28;20040;-75
2021/10/05 08:28:49;;;;;;;3.88;2.28;;;13.20;99.90;;;;;;5067439;28;20048;-75
2021/10/05 08:31:18;;;;;;;5.80;2.55;;;13.40;99.90;;;;;;5086104;28;20050;-77
2021/10/05 08:33:46;;;;;;;5.57;3.00;;;13.50;99.90;;;;;;5105357;28;20036;-75
2021/10/05 08:36:13;;;;;;;3.90;2.80;;;13.60;99.90;;;;;;5108065;27;20484;-75
2021/10/05 08:38:40;;;;;;;3.83;2.30;;;13.70;99.90;;;;;;5066821;28;20412;-74
2021/10/05 08:41:07;;;;;;;4.75;2.95;;;13.90;99.90;;;;;;5107641;28;20039;-75
2021/10/05 08:43:34;;;;;;;8.00;2.90;;;14.00;99.90;;;;;;5084692;28;20039;-75
2021/10/05 08:46:04;;;;;;;5.60;2.60;;;14.10;99.90;;;;;;5087868;28;20051;-76
2021/10/05 08:48:32;;;;;;;5.22;3.20;;;14.20;99.90;;;;;;5084559;27;20788;-75
2021/10/05 08:50:59;;;;;;;6.55;3.30;;;14.30;99.90;;;;;;5105889;27;20043;-75
2021/10/05 08:53:26;;;;;;;6.38;2.63;;;14.40;99.90;;;;;;5110710;27;20031;-75
2021/10/05 08:55:53;;;;;;;6.75;3.60;;;14.50;99.90;;;;;;5086280;28;20036;-76
2021/10/05 08:58:19;;;;;;;4.13;2.70;;;14.50;99.90;;;;;;5087869;28;20031;-77
2021/10/05 09:00:46;;;;;;;6.07;2.38;;;14.50;99.90;;;;;;5065441;27;20437;-76
2021/10/05 09:03:24;;;;;;;4.20;2.22;;;14.60;99.90;;;;;;5106050;27;20043;-77
2021/10/05 09:05:51;;;;;;;4.75;1.80;;;14.60;99.90;;;;;;5074201;28;20051;-78
2021/10/05 09:08:22;;;;;;;4.50;2.17;;;14.70;99.90;;;;;;5111440;27;20031;-76
2021/10/05 09:10:59;;;;;;;7.80;2.25;;;14.80;99.90;;;;;;5113927;27;20046;-76
2021/10/05 09:13:33;;;;;;;4.00;2.33;;;15.00;99.90;;;;;;5113672;27;20039;-76
2021/10/05 09:16:00;;;;;;;6.57;2.10;;;15.10;99.90;;;;;;5070899;27;20483;-76
2021/10/05 09:18:27;;;;;;;5.68;1.98;;;15.20;99.90;;;;;;5106192;27;20388;-76
2021/10/05 09:20:53;;;;;;;5.90;2.00;;;15.30;99.90;;;;;;5069498;28;20036;-76
2021/10/05 09:23:20;;;;;;;4.30;1.42;;;15.50;99.90;;;;;;5112052;27;20054;-76
2021/10/05 09:25:52;;;;;;;4.28;1.63;;;15.60;99.90;;;;;;5069968;27;20048;-76
2021/10/05 09:28:25;;;;;;;4.18;1.85;;;15.80;99.90;;;;;;5084765;28;20040;-76
2021/10/05 09:31:02;;;;;;;;;;;15.90;99.90;;;;;;5087622;27;20031;-76
2021/10/05 09:33:29;;;;;;;7.10;2.17;;;16.00;99.90;;;;;;5084749;28;20299;-75
2021/10/05 09:35:56;;;;;;;2.55;1.10;;;16.20;99.90;;;;;;5083547;28;20048;-75
2021/10/05 09:38:24;;;;;;;7.55;1.20;;;16.30;99.90;;;;;;5084591;28;20492;-76
2021/10/05 09:41:03;;;;;;;3.45;1.10;;;16.40;99.90;;;;;;5085506;28;20051;-76
2021/10/05 09:43:30;;;;;;;2.90;0.77;;;16.50;99.90;;;;;;5085289;27;20048;-76
2021/10/05 09:46:20;;;;;;;2.38;0.90;;;16.60;99.90;;;;;;5107054;27;20403;-75
2021/10/05 09:48:46;;;;;;;3.83;0.93;;;16.70;99.90;;;;;;5086033;28;20060;-76
2021/10/05 09:51:23;;;;;;;4.22;1.13;;;16.80;99.90;;;;;;5087202;27;20051;-76
2021/10/05 09:53:51;;;;;;;3.03;0.98;;;16.90;99.90;;;;;;5105316;27;20039;-74
2021/10/05 09:56:19;;;;;;;5.25;0.95;;;17.00;99.90;;;;;;5085166;28;20024;-76
2021/10/05 09:58:45;;;;;;;2.65;1.00;;;17.20;99.90;;;;;;5084162;28;20586;-75
2021/10/05 10:01:12;;;;;;;3.50;0.90;;;17.40;99.90;;;;;;5068488;28;20048;-76
2021/10/05 10:03:40;;;;;;;2.45;0.95;;;17.60;99.90;;;;;;5053023;28;20047;-76
2021/10/05 10:06:07;;;;;;;3.00;1.10;;;17.80;99.90;;;;;;5087715;27;20035;-75
2021/10/05 10:08:36;;;;;;;4.13;0.73;;;18.10;99.90;;;;;;5087506;27;20040;-82
2021/10/05 10:11:03;;;;;;;5.75;0.70;;;18.30;99.90;;;;;;5088040;27;20031;-77
2021/10/05 10:13:29;;;;;;;3.65;0.55;;;18.40;99.90;;;;;;5087959;27;20495;-77
2021/10/05 10:15:57;;;;;;;2.97;0.60;;;18.70;99.90;;;;;;5067639;28;20047;-77
2021/10/05 10:18:24;;;;;;;3.00;0.60;;;18.90;99.90;;;;;;5085805;28;20361;-77
2021/10/05 10:21:11;;;;;;;3.35;0.60;;;19.10;99.90;;;;;;5114132;27;20388;-77
2021/10/05 10:23:39;;;;;;;3.13;0.68;;;19.40;99.60;;;;;;5106975;27;20408;-76
2021/10/05 10:26:07;;;;;;;2.75;0.80;;;19.60;99.70;;;;;;5089087;27;20054;-76
2021/10/05 10:28:37;;;;;;;1.98;0.60;;;19.80;99.70;;;;;;5083031;28;20052;-76
2021/10/05 10:31:10;;;;;;;3.05;0.65;;;20.20;98.50;;;;;;5085338;27;20023;-76
2021/10/05 10:33:48;;;;;;;2.13;0.55;;;20.40;97.80;;;;;;5085926;28;20047;-76
2021/10/05 10:36:27;;;;;;;2.00;0.60;;;20.60;97.80;;;;;;5116281;27;20023;-76
2021/10/05 10:39:13;;;;;;;2.92;0.68;;;20.90;97.00;;;;;;5091571;27;20040;-76
2021/10/05 10:41:53;;;;;;;2.55;0.50;;;21.20;96.80;;;;;;5085011;28;20481;-76
2021/10/05 10:44:31;;;;;;;2.38;0.40;;;21.60;96.70;;;;;;5084615;28;20540;-77
2021/10/05 10:47:14;;;;;;;2.10;0.60;;;21.80;95.50;;;;;;5085640;28;20043;-78
2021/10/05 10:50:01;;;;;;;1.85;0.50;;;21.90;93.30;;;;;;5066290;28;20043;-78
2021/10/05 10:52:34;;;;;;;2.40;0.40;;;21.80;93.50;;;;;;5090331;27;20066;-78
2021/10/05 10:55:02;;;;;;;2.42;0.70;;;21.70;93.00;;;;;;5105447;27;20042;-77
2021/10/05 10:57:41;;;;;;;6.65;3.20;;;21.50;91.60;;;;;;5081904;28;20031;-78
2021/10/05 11:00:20;;;;;;;3.50;0.80;;;21.00;91.60;;;;;;5103609;28;20034;-77
2021/10/05 11:02:49;;;;;;;5.22;0.75;;;20.60;92.10;;;;;;5102358;28;20388;-79
2021/10/05 11:05:19;;;;;;;1.35;0.60;;;20.40;92.20;;;;;;5103543;28;20024;-78
2021/10/05 11:07:45;;;;;;;2.88;0.60;;;20.20;92.90;;;;;;5056334;28;20043;-78
2021/10/05 11:10:11;;;;;;;4.15;0.80;;;20.30;93.20;;;;;;5084371;28;21162;-78
2021/10/05 11:13:07;;;;;;;4.68;0.60;;;20.50;93.50;;;;;;5108014;27;20034;-78
2021/10/05 11:15:48;;;;;;;4.50;0.70;;;20.50;92.60;;;;;;5069350;27;20043;-78
2021/10/05 11:18:19;;;;;;;1.63;0.40;;;20.20;92.90;;;;;;5084902;28;20036;-78
2021/10/05 11:20:49;;;;;;;3.67;0.50;;;19.80;93.30;;;;;;5083319;28;20035;-75
2021/10/05 11:23:17;;;;;;;4.72;0.60;;;19.40;93.50;;;;;;5067220;28;20035;-75
2021/10/05 11:25:48;;;;;;;1.88;0.50;;;19.10;93.90;;;;;;5085664;28;20487;-76
2021/10/05 11:28:16;;;;;;;2.90;0.70;;;18.90;94.40;;;;;;5106580;27;20039;-75
2021/10/05 11:30:51;;;;;;;2.85;0.60;;;18.60;94.90;;;;;;5085209;27;20039;-75
2021/10/05 11:33:24;;;;;;;2.47;0.77;;;18.50;95.30;;;;;;5085616;28;20027;-75
2021/10/05 11:35:51;;;;;;;1.92;0.50;;;18.50;95.60;;;;;;5108088;28;20050;-75
2021/10/05 11:38:18;;;;;;;2.47;0.60;;;18.40;95.90;;;;;;5104784;27;20023;-75
2021/10/05 11:40:57;;;;;;;1.58;0.50;;;18.40;95.90;;;;;;5084394;28;20035;-75
2021/10/05 11:43:42;;;;;;;2.10;0.40;;;18.30;96.00;;;;;;5081892;28;20389;-75
2021/10/05 11:46:14;;;;;;;3.53;0.50;;;18.30;96.30;;;;;;5104447;28;20050;-75
2021/10/05 11:48:48;;;;;;;1.67;0.60;;;18.30;96.30;;;;;;5108696;28;20038;-75
2021/10/05 11:51:18;;;;;;;2.47;0.90;;;18.30;96.10;;;;;;5103418;28;20740;-75
2021/10/05 11:53:46;;;;;;;2.60;0.60;;;18.30;96.30;;;;;;5110418;28;20039;-75
2021/10/05 11:56:18;;;;;;;4.70;0.57;;;18.30;96.30;;;;;;5085526;28;20089;-75
2021/10/05 11:58:45;;;;;;;;;;;18.30;96.30;;;;;;5085449;28;20028;-76
2021/10/05 12:01:17;;;;;;;0.98;0.55;;;18.30;96.40;;;;;;5084241;28;19911;-77
2021/10/05 12:03:47;;;;;;;2.75;0.60;;;18.30;96.40;;;;;;5084888;28;20048;-76
2021/10/05 12:06:50;;;;;;;4.35;0.70;;;18.30;96.50;;;;;;5085109;28;20032;-75
2021/10/05 12:09:24;;;;;;;2.58;0.63;;;18.40;96.70;;;;;;5057902;28;20488;-75
2021/10/05 12:11:51;;;;;;;3.45;0.70;;;18.40;96.90;;;;;;5107090;28;20491;-76
2021/10/05 12:14:21;;;;;;;2.97;0.50;;;18.30;96.80;;;;;;5102377;28;20040;-75
2021/10/05 12:16:55;;;;;;;3.78;0.70;;;18.30;96.90;;;;;;5104046;28;20031;-75
2021/10/05 12:19:30;;;;;;;4.68;0.55;;;18.30;96.90;;;;;;5103863;28;20039;-75
2021/10/05 12:21:58;;;;;;;3.13;0.50;;;18.30;97.00;;;;;;5106443;27;20039;-76
2021/10/05 12:24:42;;;;;;;1.80;0.47;;;18.30;97.10;;;;;;5087874;27;20054;-75
2021/10/05 12:27:14;;;;;;;4.22;0.60;;;18.20;97.20;;;;;;5086975;28;20070;-76
2021/10/05 12:29:50;;;;;;;2.20;0.45;;;18.10;97.30;;;;;;5104976;27;20031;-77
2021/10/05 12:32:17;;;;;;;6.97;0.88;;;18.00;97.30;;;;;;5111196;27;20036;-77
2021/10/05 12:34:49;;;;;;;2.58;0.50;;;17.90;97.10;;;;;;5084959;28;20044;-77
2021/10/05 12:37:18;;;;;;;2.85;0.55;;;17.90;97.30;;;;;;5091509;27;20058;-77
2021/10/05 12:39:56;;;;;;;3.80;0.50;;;17.80;97.50;;;;;;5072309;27;20044;-77
2021/10/05 12:42:22;;;;;;;2.10;0.50;;;17.80;97.80;;;;;;5090671;27;20391;-77
2021/10/05 12:44:55;;;;;;;3.28;0.50;;;17.80;97.80;;;;;;5072601;27;20071;-76
2021/10/05 12:47:22;;;;;;;4.28;0.50;;;17.80;97.80;;;;;;5109282;27;20424;-76
2021/10/05 12:49:52;;;;;;;2.35;0.40;;;17.80;98.00;;;;;;5073003;27;20048;-76
2021/10/05 12:52:19;;;;;;;5.38;0.60;;;17.80;98.10;;;;;;5088434;27;20043;-75
2021/10/05 12:54:45;;;;;;;2.28;0.57;;;17.80;98.30;;;;;;5071501;28;20051;-75
2021/10/05 12:57:13;;;;;;;3.63;0.50;;;17.70;98.40;;;;;;5088101;28;20451;-75
2021/10/05 12:59:53;;;;;;;2.70;0.50;;;17.70;98.50;;;;;;5104993;27;20042;-76